createdAt,value
2022-12-23T00:00:40.147Z,35.80
2022-12-23T00:03:07.512Z,49.58
2022-12-23T00:05:38.306Z,87.10
2022-12-23T00:08:07.037Z,33.88
2022-12-23T00:10:37.892Z,30.35
2022-12-23T00:13:25.027Z,44.55
2022-12-23T00:16:00.308Z,75.70
2022-12-23T00:18:27.409Z,49.30
2022-12-23T00:21:06.558Z,67.43
2022-12-23T00:23:38.333Z,31.15
2022-12-23T00:26:05.829Z,29.02
2022-12-23T00:28:33.283Z,40.72
2022-12-23T00:31:03.043Z,38.65
2022-12-23T00:33:42.240Z,52.10
2022-12-23T00:36:13.395Z,39.13
2022-12-23T00:39:00.736Z,33.05
2022-12-23T00:41:48.263Z,42.15
2022-12-23T00:44:15.779Z,41.25
2022-12-23T00:46:43.060Z,34.95
2022-12-23T00:49:33.636Z,37.42
2022-12-23T00:52:01.448Z,31.27
2022-12-23T00:54:30.089Z,32.00
2022-12-23T00:56:57.086Z,33.47
2022-12-23T00:59:24.233Z,42.10
2022-12-23T01:02:11.545Z,38.25
2022-12-23T01:04:58.652Z,41.00
2022-12-23T01:07:26.257Z,31.55
2022-12-23T01:09:53.318Z,36.78
2022-12-23T01:12:20.585Z,34.42
2022-12-23T01:14:47.612Z,41.50
2022-12-23T01:17:15.029Z,38.97
2022-12-23T01:19:42.280Z,33.15
2022-12-23T01:22:09.493Z,34.00
2022-12-23T01:24:37.111Z,44.00
2022-12-23T01:27:04.170Z,36.58
2022-12-23T01:29:31.441Z,37.28
2022-12-23T01:31:58.559Z,37.05
2022-12-23T01:34:29.703Z,36.13
2022-12-23T01:36:59.945Z,32.92
2022-12-23T01:39:27.106Z,34.38
2022-12-23T01:42:14.143Z,34.22
2022-12-23T01:44:48.857Z,35.80
2022-12-23T01:49:47.616Z,32.85
2022-12-23T01:52:15.449Z,35.63
2022-12-23T01:54:43.794Z,38.17
2022-12-23T01:57:11.531Z,34.95
2022-12-23T01:59:58.784Z,36.20
2022-12-23T02:02:47.877Z,38.58
2022-12-23T02:05:16.026Z,38.17
2022-12-23T02:08:03.682Z,32.13
2022-12-23T02:10:44.308Z,34.85
2022-12-23T02:13:25.508Z,36.45
2022-12-23T02:16:20.191Z,35.08
2022-12-23T02:19:11.667Z,32.63
2022-12-23T02:21:54.983Z,33.83
2022-12-23T02:24:42.156Z,30.40
2022-12-23T02:27:13.644Z,30.65
2022-12-23T02:30:00.770Z,29.70
2022-12-23T02:32:47.743Z,29.02
2022-12-23T02:35:29.350Z,30.52
2022-12-23T02:38:09.480Z,33.10
2022-12-23T02:40:56.824Z,29.67
2022-12-23T02:43:36.647Z,41.05
2022-12-23T02:46:33.026Z,30.08
2022-12-23T02:49:25.031Z,29.88
2022-12-23T02:51:55.535Z,32.22
2022-12-23T02:54:29.955Z,31.75
2022-12-23T02:59:30.748Z,31.52
2022-12-23T03:01:58.877Z,33.13
2022-12-23T03:04:26.320Z,31.15
2022-12-23T03:06:55.675Z,31.95
2022-12-23T03:09:31.522Z,27.23
2022-12-23T03:12:22.848Z,33.22
2022-12-23T03:14:55.356Z,32.72
2022-12-23T03:17:49.300Z,33.58
2022-12-23T03:20:27.746Z,33.08
2022-12-23T03:23:03.375Z,31.15
2022-12-23T03:25:36.133Z,29.70
2022-12-23T03:28:27.833Z,35.47
2022-12-23T03:30:59.201Z,35.45
2022-12-23T03:33:35.936Z,40.97
2022-12-23T03:36:10.926Z,35.13
2022-12-23T03:38:41.167Z,31.85
2022-12-23T03:41:13.173Z,33.95
2022-12-23T03:43:50.594Z,49.28
2022-12-23T03:46:27.433Z,37.30
2022-12-23T03:48:59.658Z,36.03
2022-12-23T03:51:35.180Z,35.35
2022-12-23T03:54:08.935Z,38.63
2022-12-23T03:56:40.589Z,35.90
2022-12-23T03:59:17.562Z,39.05
2022-12-23T04:01:53.652Z,33.17
2022-12-23T04:04:29.544Z,33.67
2022-12-23T04:07:05.210Z,29.45
2022-12-23T04:09:33.220Z,32.33
2022-12-23T04:12:00.319Z,31.20
2022-12-23T04:14:27.523Z,34.58
2022-12-23T04:16:58.387Z,47.45
2022-12-23T04:19:25.910Z,34.67
2022-12-23T04:21:57.051Z,38.03
2022-12-23T04:24:24.289Z,32.88
2022-12-23T04:26:51.408Z,36.15
2022-12-23T04:29:18.495Z,34.13
2022-12-23T04:31:45.789Z,31.83
2022-12-23T04:34:13.153Z,30.60
2022-12-23T04:36:40.240Z,32.50
2022-12-23T04:39:07.462Z,34.30
2022-12-23T04:41:34.533Z,36.85
2022-12-23T04:44:01.849Z,49.47
2022-12-23T04:46:28.998Z,32.83
2022-12-23T04:48:56.374Z,36.55
2022-12-23T04:51:23.860Z,38.88
2022-12-23T04:53:51.177Z,39.88
2022-12-23T04:56:18.361Z,39.30
2022-12-23T04:58:45.390Z,35.50
2022-12-23T05:01:13.229Z,32.33
2022-12-23T05:03:41.017Z,32.20
2022-12-23T05:06:08.680Z,35.13
2022-12-23T05:08:36.020Z,32.42
2022-12-23T05:11:04.559Z,30.77
2022-12-23T05:13:31.807Z,37.45
2022-12-23T05:15:59.033Z,31.08
2022-12-23T05:18:26.258Z,30.30
2022-12-23T05:20:53.511Z,31.90
2022-12-23T05:23:20.744Z,28.60
2022-12-23T05:25:53.803Z,32.00
2022-12-23T05:28:22.759Z,29.15
2022-12-23T05:30:50.095Z,31.75
2022-12-23T05:33:17.321Z,29.52
2022-12-23T05:35:44.692Z,30.25
2022-12-23T05:38:11.845Z,32.85
2022-12-23T05:40:39.111Z,31.38
2022-12-23T05:43:06.342Z,32.20
2022-12-23T05:45:36.293Z,29.50
2022-12-23T05:48:03.774Z,29.80
2022-12-23T05:50:31.230Z,28.70
2022-12-23T05:53:02.700Z,30.13
2022-12-23T05:55:29.994Z,28.45
2022-12-23T05:57:57.349Z,27.65
2022-12-23T06:00:24.802Z,29.70
2022-12-23T06:02:54.186Z,29.75
2022-12-23T06:05:22.586Z,29.50
2022-12-23T06:07:50.070Z,29.80
2022-12-23T06:10:17.275Z,28.48
2022-12-23T06:12:44.676Z,30.80
2022-12-23T06:15:12.809Z,33.58
2022-12-23T06:17:40.170Z,32.22
2022-12-23T06:20:14.776Z,31.05
2022-12-23T06:22:47.367Z,32.35
2022-12-23T06:25:14.623Z,31.50
2022-12-23T06:27:41.733Z,29.95
2022-12-23T06:30:09.896Z,34.50
2022-12-23T06:32:38.891Z,30.75
2022-12-23T06:35:08.148Z,31.20
2022-12-23T06:37:35.608Z,28.67
2022-12-23T06:40:03.456Z,31.70
2022-12-23T06:42:30.653Z,32.15
2022-12-23T06:44:57.892Z,28.83
2022-12-23T06:47:24.992Z,28.42
2022-12-23T06:49:52.205Z,28.92
2022-12-23T06:52:19.374Z,30.33
2022-12-23T06:54:46.496Z,29.85
2022-12-23T06:57:13.837Z,32.17
2022-12-23T06:59:41.081Z,28.27
2022-12-23T07:02:11.288Z,30.90
2022-12-23T07:04:38.525Z,31.02
2022-12-23T07:07:05.675Z,33.88
2022-12-23T07:09:32.803Z,31.17
2022-12-23T07:11:59.948Z,33.10
2022-12-23T07:14:27.110Z,33.95
2022-12-23T07:16:54.476Z,32.35
2022-12-23T07:19:21.573Z,32.13
2022-12-23T07:21:48.838Z,32.00
2022-12-23T07:24:16.040Z,33.55
2022-12-23T07:26:43.207Z,35.13
2022-12-23T07:29:10.403Z,27.33
2022-12-23T07:31:40.947Z,24.48
2022-12-23T07:34:09.347Z,21.90
2022-12-23T07:36:36.504Z,21.50
2022-12-23T07:39:04.002Z,18.80
2022-12-23T07:41:30.997Z,16.83
2022-12-23T07:44:06.258Z,16.25
2022-12-23T07:46:33.598Z,14.40
2022-12-23T07:49:00.841Z,15.95
2022-12-23T07:51:28.322Z,17.10
2022-12-23T07:53:55.462Z,15.88
2022-12-23T07:56:22.619Z,13.40
2022-12-23T07:58:51.280Z,15.27
2022-12-23T08:01:19.606Z,15.90
2022-12-23T08:03:49.023Z,14.15
2022-12-23T08:06:16.813Z,14.55
2022-12-23T08:08:46.208Z,15.05
2022-12-23T08:11:14.801Z,13.32
2022-12-23T08:13:43.940Z,16.98
2022-12-23T08:16:12.431Z,17.15
2022-12-23T08:18:41.334Z,17.42
2022-12-23T08:21:14.929Z,18.10
2022-12-23T08:23:43.585Z,13.57
2022-12-23T08:26:13.739Z,18.23
2022-12-23T08:28:42.995Z,18.52
2022-12-23T08:31:14.102Z,20.45
2022-12-23T08:33:43.216Z,17.98
2022-12-23T08:36:20.650Z,18.35
2022-12-23T08:38:53.328Z,17.73
2022-12-23T08:41:23.895Z,17.92
2022-12-23T08:43:51.482Z,20.13
2022-12-23T08:46:19.142Z,17.52
2022-12-23T08:48:49.358Z,21.45
2022-12-23T08:51:19.024Z,18.88
2022-12-23T08:53:46.638Z,17.38
2022-12-23T08:56:17.197Z,17.58
2022-12-23T08:58:46.219Z,19.45
2022-12-23T09:01:16.099Z,19.05
2022-12-23T09:03:44.563Z,17.50
2022-12-23T09:06:14.625Z,20.73
2022-12-23T09:08:42.237Z,18.42
2022-12-23T09:11:14.574Z,21.52
2022-12-23T09:13:42.240Z,21.50
2022-12-23T09:16:09.771Z,20.30
2022-12-23T09:18:37.446Z,19.98
2022-12-23T09:21:07.296Z,20.10
2022-12-23T09:23:34.944Z,17.73
2022-12-23T09:26:03.923Z,17.17
2022-12-23T09:28:30.971Z,17.58
2022-12-23T09:30:58.107Z,16.58
2022-12-23T09:33:25.297Z,17.38
2022-12-23T09:35:52.276Z,16.83
2022-12-23T09:38:19.568Z,17.23
2022-12-23T09:40:46.717Z,19.85
2022-12-23T09:43:25.116Z,18.77
2022-12-23T09:46:00.305Z,18.83
2022-12-23T09:48:33.753Z,16.90
2022-12-23T09:51:02.940Z,18.52
2022-12-23T09:53:43.443Z,16.77
2022-12-23T09:56:36.711Z,20.05
2022-12-23T09:59:23.893Z,16.73
2022-12-23T10:02:27.002Z,17.10
2022-12-23T10:05:05.294Z,18.92
2022-12-23T10:07:40.190Z,16.20
2022-12-23T10:10:17.907Z,17.67
2022-12-23T10:12:50.209Z,15.55
2022-12-23T10:15:26.027Z,15.55
2022-12-23T10:17:58.918Z,14.70
2022-12-23T10:20:37.531Z,14.90
2022-12-23T10:23:11.340Z,16.45
2022-12-23T10:25:46.454Z,14.93
2022-12-23T10:28:13.701Z,12.75
2022-12-23T10:31:23.983Z,14.35
2022-12-23T10:33:39.236Z,12.77
2022-12-23T10:36:16.409Z,12.15
2022-12-23T10:39:01.668Z,12.52
2022-12-23T10:44:32.472Z,13.18
2022-12-23T10:47:09.055Z,12.57
2022-12-23T10:50:15.901Z,14.43
2022-12-23T10:52:45.506Z,13.95
2022-12-23T10:55:31.335Z,12.90
2022-12-23T10:58:18.686Z,12.85
2022-12-23T11:00:52.327Z,13.52
2022-12-23T11:03:26.389Z,12.83
2022-12-23T11:05:54.266Z,11.48
2022-12-23T11:08:23.371Z,11.35
2022-12-23T11:10:50.900Z,14.35
2022-12-23T11:13:43.862Z,13.05
2022-12-23T11:16:14.331Z,11.80
2022-12-23T11:19:03.016Z,16.00
2022-12-23T11:21:32.172Z,14.75
2022-12-23T11:24:17.892Z,15.52
2022-12-23T11:26:48.720Z,13.95
2022-12-23T11:29:25.632Z,13.13
2022-12-23T11:31:53.169Z,13.15
2022-12-23T11:34:24.250Z,12.20
2022-12-23T11:37:01.822Z,12.95
2022-12-23T11:39:36.821Z,10.98
2022-12-23T11:42:03.944Z,15.07
2022-12-23T11:44:38.051Z,10.82
2022-12-23T11:47:29.199Z,12.50
2022-12-23T11:49:59.325Z,9.18
2022-12-23T11:52:30.845Z,9.52
2022-12-23T11:55:01.171Z,10.13
2022-12-23T11:57:47.477Z,10.20
2022-12-23T12:00:40.328Z,10.77
2022-12-23T12:03:19.114Z,10.48
2022-12-23T12:05:53.412Z,8.43
2022-12-23T12:08:25.752Z,11.15
2022-12-23T12:11:00.300Z,8.98
2022-12-23T12:13:36.769Z,12.50
2022-12-23T12:16:04.815Z,10.55
2022-12-23T12:18:32.261Z,10.10
2022-12-23T12:21:05.764Z,9.68
2022-12-23T12:23:40.222Z,9.57
2022-12-23T12:26:17.720Z,8.65
2022-12-23T12:28:49.324Z,9.55
2022-12-23T12:31:26.443Z,8.23
2022-12-23T12:33:58.605Z,9.27
2022-12-23T12:36:45.768Z,10.10
2022-12-23T12:39:21.232Z,8.40
2022-12-23T12:42:00.065Z,11.00
2022-12-23T12:44:46.360Z,9.75
2022-12-23T12:47:52.071Z,9.18
2022-12-23T12:50:17.269Z,10.23
2022-12-23T12:52:45.099Z,10.48
2022-12-23T12:55:33.772Z,8.93
2022-12-23T12:58:02.957Z,10.23
2022-12-23T13:00:42.196Z,8.93
2022-12-23T13:03:24.900Z,9.95
2022-12-23T13:06:05.922Z,9.60
2022-12-23T13:08:40.056Z,13.48
2022-12-23T13:11:22.188Z,9.18
2022-12-23T13:13:54.689Z,10.15
2022-12-23T13:16:37.170Z,9.45
2022-12-23T13:19:05.372Z,9.77
2022-12-23T13:21:44.562Z,11.63
2022-12-23T13:24:43.810Z,11.30
2022-12-23T13:27:24.616Z,10.00
2022-12-23T13:30:13.299Z,8.60
2022-12-23T13:32:44.959Z,11.45
2022-12-23T13:35:14.146Z,10.70
2022-12-23T13:37:56.839Z,10.73
2022-12-23T13:40:30.817Z,9.75
2022-12-23T13:43:05.049Z,9.35
2022-12-23T13:45:36.316Z,10.02
2022-12-23T13:48:11.776Z,10.40
2022-12-23T13:50:43.481Z,13.70
2022-12-23T13:53:47.645Z,11.25
2022-12-23T13:56:41.681Z,11.77
2022-12-23T13:59:11.613Z,10.70
2022-12-23T14:01:42.039Z,9.18
2022-12-23T14:04:34.557Z,12.95
2022-12-23T14:07:07.290Z,11.00
2022-12-23T14:09:38.449Z,11.32
2022-12-23T14:12:12.806Z,10.93
2022-12-23T14:14:49.945Z,10.05
2022-12-23T14:17:25.990Z,9.80
2022-12-23T14:19:59.139Z,8.77
2022-12-23T14:22:55.194Z,10.68
2022-12-23T14:25:43.161Z,11.25
2022-12-23T14:28:30.252Z,10.73
2022-12-23T14:30:58.027Z,10.23
2022-12-23T14:33:31.201Z,10.57
2022-12-23T14:36:20.979Z,10.88
2022-12-23T14:39:15.385Z,12.15
2022-12-23T14:41:52.608Z,9.13
2022-12-23T14:44:39.651Z,9.90
2022-12-23T14:47:31.867Z,10.95
2022-12-23T14:50:38.701Z,10.45
2022-12-23T14:53:22.170Z,11.68
2022-12-23T14:55:50.746Z,19.75
2022-12-23T14:58:17.811Z,15.80
2022-12-23T15:01:10.029Z,21.60
2022-12-23T15:03:43.625Z,19.98
2022-12-23T15:06:20.545Z,16.40
2022-12-23T15:08:51.380Z,12.85
2022-12-23T15:11:26.707Z,11.73
2022-12-23T15:13:55.262Z,13.55
2022-12-23T15:16:30.834Z,13.10
2022-12-23T15:19:02.428Z,13.50
2022-12-23T15:21:32.853Z,13.00
2022-12-23T15:24:00.722Z,15.02
2022-12-23T15:26:31.659Z,19.20
2022-12-23T15:29:00.612Z,17.95
2022-12-23T15:31:29.680Z,18.70
2022-12-23T15:34:03.700Z,16.80
2022-12-23T15:36:36.305Z,16.33
2022-12-23T15:39:10.044Z,16.23
2022-12-23T15:41:46.659Z,14.32
2022-12-23T15:44:19.620Z,16.48
2022-12-23T15:46:46.862Z,19.77
2022-12-23T15:49:14.119Z,20.13
2022-12-23T15:54:40.192Z,20.05
2022-12-23T15:57:07.330Z,19.88
2022-12-23T15:59:38.323Z,18.30
2022-12-23T16:02:59.754Z,17.65
2022-12-23T16:05:30.713Z,15.63
2022-12-23T16:08:28.672Z,17.10
2022-12-23T16:11:03.441Z,16.23
2022-12-23T16:13:30.600Z,12.23
2022-12-23T16:16:19.535Z,17.33
2022-12-23T16:18:47.759Z,17.25
2022-12-23T16:21:15.807Z,14.75
2022-12-23T16:23:51.376Z,18.70
2022-12-23T16:26:19.531Z,16.23
2022-12-23T16:28:50.602Z,15.23
2022-12-23T16:31:20.392Z,16.33
2022-12-23T16:33:57.434Z,16.20
2022-12-23T16:36:25.857Z,16.77
2022-12-23T16:39:22.899Z,18.00
2022-12-23T16:41:50.621Z,17.77
2022-12-23T16:44:17.666Z,57.50
2022-12-23T16:46:47.908Z,25.08
2022-12-23T16:49:19.094Z,22.45
2022-12-23T16:51:46.968Z,22.02
2022-12-23T16:54:17.866Z,20.00
2022-12-23T16:56:47.036Z,20.17
2022-12-23T16:59:15.150Z,16.33
2022-12-23T17:01:46.325Z,16.35
2022-12-23T17:04:13.515Z,16.02
2022-12-23T17:06:41.787Z,18.35
2022-12-23T17:09:10.939Z,17.40
2022-12-23T17:11:40.591Z,24.13
2022-12-23T17:14:19.661Z,41.70
2022-12-23T17:16:47.408Z,63.08
2022-12-23T17:19:15.296Z,75.57
2022-12-23T17:21:44.782Z,61.75
2022-12-23T17:24:28.006Z,64.88
2022-12-23T17:26:56.899Z,64.60
2022-12-23T17:29:24.103Z,74.43
2022-12-23T17:31:51.997Z,58.83
2022-12-23T17:34:21.695Z,33.22
2022-12-23T17:36:50.796Z,32.17
2022-12-23T17:39:19.588Z,31.20
2022-12-23T17:41:46.955Z,47.47
2022-12-23T17:44:15.766Z,42.22
2022-12-23T17:46:42.995Z,32.83
2022-12-23T17:49:10.183Z,23.80
2022-12-23T17:51:39.969Z,22.83
2022-12-23T17:54:07.326Z,26.25
2022-12-23T17:56:34.395Z,51.17
2022-12-23T17:59:01.556Z,36.95
2022-12-23T18:01:31.900Z,25.45
2022-12-23T18:04:00.328Z,21.15
2022-12-23T18:06:29.199Z,29.08
2022-12-23T18:08:57.975Z,25.48
2022-12-23T18:11:36.611Z,27.95
2022-12-23T18:14:04.449Z,24.45
2022-12-23T18:16:32.009Z,27.70
2022-12-23T18:18:59.203Z,24.30
2022-12-23T18:21:28.909Z,26.42
2022-12-23T18:23:59.434Z,30.83
2022-12-23T18:26:27.205Z,24.77
2022-12-23T18:28:54.955Z,27.73
2022-12-23T18:31:24.488Z,28.77
2022-12-23T18:33:51.876Z,29.50
2022-12-23T18:36:28.002Z,29.08
2022-12-23T18:38:56.811Z,25.38
2022-12-23T18:41:25.416Z,23.80
2022-12-23T18:43:53.535Z,22.58
2022-12-23T18:46:21.404Z,22.73
2022-12-23T18:48:49.091Z,20.58
2022-12-23T18:51:18.130Z,23.40
2022-12-23T18:53:46.672Z,25.90
2022-12-23T18:56:15.439Z,24.17
2022-12-23T18:58:43.334Z,26.63
2022-12-23T19:01:15.575Z,26.42
2022-12-23T19:03:43.525Z,29.13
2022-12-23T19:06:14.644Z,24.77
2022-12-23T19:08:43.047Z,23.85
2022-12-23T19:11:20.540Z,27.85
2022-12-23T19:13:48.161Z,26.13
2022-12-23T19:16:17.838Z,24.65
2022-12-23T19:18:46.056Z,23.98
2022-12-23T19:21:13.969Z,25.67
2022-12-23T19:23:41.641Z,26.58
2022-12-23T19:26:12.437Z,26.52
2022-12-23T19:28:41.824Z,22.88
2022-12-23T19:31:11.934Z,26.63
2022-12-23T19:33:41.301Z,24.50
2022-12-23T19:36:12.332Z,24.20
2022-12-23T19:38:39.913Z,23.45
2022-12-23T19:41:08.375Z,24.25
2022-12-23T19:43:37.244Z,22.58
2022-12-23T19:46:07.712Z,26.75
2022-12-23T19:48:35.648Z,19.35
2022-12-23T19:51:05.987Z,20.92
2022-12-23T19:53:34.124Z,20.17
2022-12-23T19:56:05.944Z,19.30
2022-12-23T19:58:35.569Z,19.55
2022-12-23T20:01:10.031Z,21.02
2022-12-23T20:03:38.140Z,23.70
2022-12-23T20:06:07.962Z,23.10
2022-12-23T20:08:35.634Z,24.65
2022-12-23T20:11:07.018Z,29.23
2022-12-23T20:13:35.166Z,23.98
2022-12-23T20:16:04.189Z,26.10
2022-12-23T20:18:31.695Z,22.40
2022-12-23T20:20:59.953Z,25.73
2022-12-23T20:23:29.178Z,26.92
2022-12-23T20:25:57.697Z,24.17
2022-12-23T20:28:25.694Z,22.25
2022-12-23T20:31:22.171Z,22.60
2022-12-23T20:33:50.943Z,20.55
2022-12-23T20:36:21.863Z,20.10
2022-12-23T20:38:50.679Z,22.38
2022-12-23T20:41:21.399Z,22.55
2022-12-23T20:44:15.729Z,22.42
2022-12-23T20:46:36.838Z,26.67
2022-12-23T20:49:04.320Z,24.48
2022-12-23T20:51:31.687Z,24.67
2022-12-23T20:54:00.075Z,25.10
2022-12-23T20:56:29.451Z,24.08
2022-12-23T20:58:59.332Z,23.88
2022-12-23T21:01:29.769Z,17.67
2022-12-23T21:03:59.981Z,21.33
2022-12-23T21:06:28.750Z,19.52
2022-12-23T21:08:59.045Z,22.63
2022-12-23T21:11:30.081Z,19.92
2022-12-23T21:14:06.166Z,20.70
2022-12-23T21:16:35.818Z,21.85
2022-12-23T21:19:03.665Z,23.63
2022-12-23T21:21:32.069Z,21.33
2022-12-23T21:24:04.634Z,24.27
2022-12-23T21:26:33.723Z,25.00
2022-12-23T21:29:04.012Z,26.30
2022-12-23T21:31:32.767Z,26.75
2022-12-23T21:34:00.463Z,27.17
2022-12-23T21:36:31.313Z,25.83
2022-12-23T21:38:59.488Z,27.02
2022-12-23T21:41:31.872Z,31.48
2022-12-23T21:44:00.330Z,26.85
2022-12-23T21:46:28.777Z,26.50
2022-12-23T21:48:57.083Z,25.90
2022-12-23T21:51:31.790Z,25.30
2022-12-23T21:54:05.570Z,26.88
2022-12-23T21:56:33.059Z,28.13
2022-12-23T21:59:04.208Z,23.95
2022-12-23T22:01:32.531Z,25.67
2022-12-23T22:03:59.991Z,25.85
2022-12-23T22:06:29.939Z,22.17
2022-12-23T22:08:58.250Z,21.05
2022-12-23T22:11:28.276Z,20.40
2022-12-23T22:13:58.081Z,22.33
2022-12-23T22:16:27.509Z,21.77
2022-12-23T22:18:56.192Z,22.20
2022-12-23T22:21:25.402Z,23.33
2022-12-23T22:23:54.212Z,26.98
2022-12-23T22:26:25.744Z,24.38
2022-12-23T22:28:55.541Z,23.15
2022-12-23T22:31:47.202Z,24.73
2022-12-23T22:34:17.305Z,22.55
2022-12-23T22:36:44.833Z,21.35
2022-12-23T22:39:20.065Z,21.85
2022-12-23T22:41:48.240Z,20.67
2022-12-23T22:44:16.370Z,22.65
2022-12-23T22:46:43.717Z,22.45
2022-12-23T22:49:13.286Z,22.88
2022-12-23T22:51:41.313Z,20.77
2022-12-23T22:54:09.721Z,21.05
2022-12-23T22:56:37.418Z,22.40
2022-12-23T22:59:04.984Z,21.83
2022-12-23T23:01:34.961Z,21.40
2022-12-23T23:04:04.187Z,21.77
2022-12-23T23:06:35.179Z,23.25
2022-12-23T23:09:02.419Z,20.10
2022-12-23T23:11:29.883Z,22.75
2022-12-23T23:13:57.346Z,19.35
2022-12-23T23:16:25.508Z,21.88
2022-12-23T23:18:54.001Z,23.88
2022-12-23T23:21:21.798Z,20.63
2022-12-23T23:23:50.064Z,20.27
2022-12-23T23:26:18.589Z,22.48
2022-12-23T23:28:46.269Z,20.52
2022-12-23T23:34:00.715Z,20.42
2022-12-23T23:36:27.829Z,20.30
2022-12-23T23:38:54.879Z,24.35
2022-12-23T23:41:23.734Z,25.75
2022-12-23T23:43:52.018Z,20.48
2022-12-23T23:46:19.743Z,23.02
2022-12-23T23:48:47.024Z,21.17
2022-12-23T23:51:14.136Z,24.00
2022-12-23T23:53:41.183Z,20.23
2022-12-23T23:56:09.083Z,20.20
2022-12-23T23:58:37.480Z,19.48
